sensor_id;sensor_type;location;lat;lon;timestamp;pressure;altitude;pressure_sealevel;temperature;humidity
48882;BME280;57063;51.406;-2.402;2023-06-14T00:00:33;100577.88;;;18.71;49.67
48882;BME280;57063;51.406;-2.402;2023-06-14T00:03:00;100577.19;;;18.69;49.76
48882;BME280;57063;51.406;-2.402;2023-06-14T00:05:25;100576.38;;;18.69;49.55
48882;BME280;57063;51.406;-2.402;2023-06-14T00:07:51;100586.53;;;18.62;49.65
48882;BME280;57063;51.406;-2.402;2023-06-14T00:10:19;100583.94;;;18.62;49.80
48882;BME280;57063;51.406;-2.402;2023-06-14T00:12:44;100581.88;;;18.56;50.01
48882;BME280;57063;51.406;-2.402;2023-06-14T00:15:10;100572.78;;;18.60;49.79
48882;BME280;57063;51.406;-2.402;2023-06-14T00:17:36;100573.63;;;18.51;50.25
48882;BME280;57063;51.406;-2.402;2023-06-14T00:20:02;100580.47;;;18.42;50.58
48882;BME280;57063;51.406;-2.402;2023-06-14T00:22:30;100584.59;;;18.35;50.70
48882;BME280;57063;51.406;-2.402;2023-06-14T00:24:57;100585.25;;;18.27;51.40
48882;BME280;57063;51.406;-2.402;2023-06-14T00:27:22;100586.91;;;18.28;51.26
48882;BME280;57063;51.406;-2.402;2023-06-14T00:29:47;100586.19;;;18.26;51.59
48882;BME280;57063;51.406;-2.402;2023-06-14T00:32:13;100580.28;;;18.14;51.99
48882;BME280;57063;51.406;-2.402;2023-06-14T00:34:38;100579.00;;;18.09;52.45
48882;BME280;57063;51.406;-2.402;2023-06-14T00:37:04;100585.34;;;18.16;51.86
48882;BME280;57063;51.406;-2.402;2023-06-14T00:39:29;100590.00;;;18.03;52.32
48882;BME280;57063;51.406;-2.402;2023-06-14T00:41:54;100596.31;;;18.00;52.54
48882;BME280;57063;51.406;-2.402;2023-06-14T00:44:20;100592.03;;;17.99;52.80
48882;BME280;57063;51.406;-2.402;2023-06-14T00:46:46;100597.06;;;17.81;53.46
48882;BME280;57063;51.406;-2.402;2023-06-14T00:49:14;100595.16;;;17.83;53.37
48882;BME280;57063;51.406;-2.402;2023-06-14T00:51:41;100597.53;;;17.75;53.60
48882;BME280;57063;51.406;-2.402;2023-06-14T00:54:06;100601.34;;;17.61;54.15
48882;BME280;57063;51.406;-2.402;2023-06-14T00:56:32;100601.16;;;17.53;54.37
48882;BME280;57063;51.406;-2.402;2023-06-14T00:58:57;100599.06;;;17.47;54.62
48882;BME280;57063;51.406;-2.402;2023-06-14T01:01:23;100591.34;;;17.45;54.23
48882;BME280;57063;51.406;-2.402;2023-06-14T01:03:49;100602.13;;;17.31;54.85
48882;BME280;57063;51.406;-2.402;2023-06-14T01:06:40;100605.50;;;17.22;55.26
48882;BME280;57063;51.406;-2.402;2023-06-14T01:09:16;100607.66;;;17.17;55.12
48882;BME280;57063;51.406;-2.402;2023-06-14T01:12:13;100604.09;;;17.18;54.54
48882;BME280;57063;51.406;-2.402;2023-06-14T01:14:41;100606.03;;;17.04;54.62
48882;BME280;57063;51.406;-2.402;2023-06-14T01:17:07;100608.44;;;17.07;54.60
48882;BME280;57063;51.406;-2.402;2023-06-14T01:19:41;100608.34;;;16.98;54.47
48882;BME280;57063;51.406;-2.402;2023-06-14T01:22:08;100607.75;;;16.94;53.89
48882;BME280;57063;51.406;-2.402;2023-06-14T01:24:33;100607.75;;;16.94;53.02
48882;BME280;57063;51.406;-2.402;2023-06-14T01:27:00;100610.75;;;16.89;52.72
48882;BME280;57063;51.406;-2.402;2023-06-14T01:29:28;100607.31;;;16.89;52.03
48882;BME280;57063;51.406;-2.402;2023-06-14T01:31:58;100607.31;;;16.89;51.61
48882;BME280;57063;51.406;-2.402;2023-06-14T01:34:24;100604.00;;;16.87;51.10
48882;BME280;57063;51.406;-2.402;2023-06-14T01:36:49;100604.00;;;16.87;50.91
48882;BME280;57063;51.406;-2.402;2023-06-14T01:39:16;100617.16;;;16.74;51.33
48882;BME280;57063;51.406;-2.402;2023-06-14T01:41:43;100612.06;;;16.73;51.37
48882;BME280;57063;51.406;-2.402;2023-06-14T01:44:12;100613.75;;;16.62;51.00
48882;BME280;57063;51.406;-2.402;2023-06-14T01:46:40;100611.16;;;16.62;50.94
48882;BME280;57063;51.406;-2.402;2023-06-14T01:49:06;100604.56;;;16.47;51.07
48882;BME280;57063;51.406;-2.402;2023-06-14T01:51:32;100610.84;;;16.44;51.95
48882;BME280;57063;51.406;-2.402;2023-06-14T01:53:57;100608.25;;;16.33;52.60
48882;BME280;57063;51.406;-2.402;2023-06-14T01:56:23;100613.94;;;16.38;52.93
48882;BME280;57063;51.406;-2.402;2023-06-14T01:58:48;100609.84;;;16.24;53.10
48882;BME280;57063;51.406;-2.402;2023-06-14T02:01:15;100612.09;;;16.18;53.22
48882;BME280;57063;51.406;-2.402;2023-06-14T02:03:41;100609.94;;;16.12;53.78
48882;BME280;57063;51.406;-2.402;2023-06-14T02:06:07;100597.53;;;16.15;52.90
48882;BME280;57063;51.406;-2.402;2023-06-14T02:08:32;100598.94;;;16.08;52.73
48882;BME280;57063;51.406;-2.402;2023-06-14T02:10:58;100601.34;;;16.00;52.22
48882;BME280;57063;51.406;-2.402;2023-06-14T02:13:23;100589.59;;;16.05;52.23
48882;BME280;57063;51.406;-2.402;2023-06-14T02:15:48;100596.44;;;16.07;51.82
48882;BME280;57063;51.406;-2.402;2023-06-14T02:18:18;100596.84;;;15.91;52.04
48882;BME280;57063;51.406;-2.402;2023-06-14T02:20:43;100589.13;;;15.89;52.03
48882;BME280;57063;51.406;-2.402;2023-06-14T02:23:08;100598.72;;;15.89;52.00
48882;BME280;57063;51.406;-2.402;2023-06-14T02:25:34;100587.63;;;15.75;51.70
48882;BME280;57063;51.406;-2.402;2023-06-14T02:28:00;100594.00;;;15.71;52.00
48882;BME280;57063;51.406;-2.402;2023-06-14T02:30:25;100599.41;;;15.68;52.21
48882;BME280;57063;51.406;-2.402;2023-06-14T02:32:51;100583.31;;;15.63;51.62
48882;BME280;57063;51.406;-2.402;2023-06-14T02:35:16;100594.06;;;15.58;51.79
48882;BME280;57063;51.406;-2.402;2023-06-14T02:37:41;100591.69;;;15.55;51.38
48882;BME280;57063;51.406;-2.402;2023-06-14T02:40:08;100592.75;;;15.53;51.39
48882;BME280;57063;51.406;-2.402;2023-06-14T02:42:34;100588.38;;;15.53;51.02
48882;BME280;57063;51.406;-2.402;2023-06-14T02:44:59;100590.72;;;15.45;51.03
48882;BME280;57063;51.406;-2.402;2023-06-14T02:47:25;100588.25;;;15.44;50.96
48882;BME280;57063;51.406;-2.402;2023-06-14T02:49:51;100596.63;;;15.36;50.73
48882;BME280;57063;51.406;-2.402;2023-06-14T02:52:16;100585.16;;;15.38;51.36
48882;BME280;57063;51.406;-2.402;2023-06-14T02:54:41;100590.34;;;15.38;51.34
48882;BME280;57063;51.406;-2.402;2023-06-14T02:57:07;100591.78;;;15.43;52.08
48882;BME280;57063;51.406;-2.402;2023-06-14T02:59:33;100586.00;;;15.39;51.69
48882;BME280;57063;51.406;-2.402;2023-06-14T03:01:59;100589.53;;;15.27;52.18
48882;BME280;57063;51.406;-2.402;2023-06-14T03:04:24;100593.38;;;15.21;52.32
48882;BME280;57063;51.406;-2.402;2023-06-14T03:06:51;100593.63;;;15.18;51.64
48882;BME280;57063;51.406;-2.402;2023-06-14T03:09:18;100609.69;;;15.12;51.26
48882;BME280;57063;51.406;-2.402;2023-06-14T03:11:44;100609.41;;;15.04;52.24
48882;BME280;57063;51.406;-2.402;2023-06-14T03:14:09;100607.78;;;15.14;51.16
48882;BME280;57063;51.406;-2.402;2023-06-14T03:16:36;100612.16;;;15.13;51.91
48882;BME280;57063;51.406;-2.402;2023-06-14T03:19:02;100608.91;;;14.98;51.86
48882;BME280;57063;51.406;-2.402;2023-06-14T03:21:27;100606.56;;;14.95;51.84
48882;BME280;57063;51.406;-2.402;2023-06-14T03:23:53;100609.38;;;14.92;53.02
48882;BME280;57063;51.406;-2.402;2023-06-14T03:26:19;100616.88;;;14.84;52.54
48882;BME280;57063;51.406;-2.402;2023-06-14T03:28:45;100614.41;;;14.83;52.53
48882;BME280;57063;51.406;-2.402;2023-06-14T03:31:11;100615.25;;;14.83;53.69
48882;BME280;57063;51.406;-2.402;2023-06-14T03:33:37;100614.44;;;14.70;54.90
48882;BME280;57063;51.406;-2.402;2023-06-14T03:36:02;100616.69;;;14.63;55.78
48882;BME280;57063;51.406;-2.402;2023-06-14T03:38:28;100614.50;;;14.57;56.73
48882;BME280;57063;51.406;-2.402;2023-06-14T03:40:53;100612.88;;;14.56;57.00
48882;BME280;57063;51.406;-2.402;2023-06-14T03:43:19;100612.84;;;14.43;56.94
48882;BME280;57063;51.406;-2.402;2023-06-14T03:45:44;100606.06;;;14.29;57.44
48882;BME280;57063;51.406;-2.402;2023-06-14T03:48:10;100618.13;;;14.18;57.34
48882;BME280;57063;51.406;-2.402;2023-06-14T03:50:35;100612.28;;;14.14;56.61
48882;BME280;57063;51.406;-2.402;2023-06-14T03:53:03;100616.44;;;14.17;56.55
48882;BME280;57063;51.406;-2.402;2023-06-14T03:55:29;100608.88;;;14.13;56.22
48882;BME280;57063;51.406;-2.402;2023-06-14T03:57:56;100609.00;;;13.99;56.24
48882;BME280;57063;51.406;-2.402;2023-06-14T04:00:22;100612.13;;;13.91;57.13
48882;BME280;57063;51.406;-2.402;2023-06-14T04:02:47;100612.97;;;13.79;57.85
48882;BME280;57063;51.406;-2.402;2023-06-14T04:05:13;100621.69;;;13.78;57.99
48882;BME280;57063;51.406;-2.402;2023-06-14T04:07:41;100627.06;;;13.75;57.57
48882;BME280;57063;51.406;-2.402;2023-06-14T04:10:11;100634.53;;;13.80;57.78
48882;BME280;57063;51.406;-2.402;2023-06-14T04:12:36;100636.44;;;13.90;57.83
48882;BME280;57063;51.406;-2.402;2023-06-14T04:15:02;100626.88;;;13.78;57.77
48882;BME280;57063;51.406;-2.402;2023-06-14T04:17:28;100633.84;;;13.78;58.18
48882;BME280;57063;51.406;-2.402;2023-06-14T04:19:53;100632.03;;;13.65;58.86
48882;BME280;57063;51.406;-2.402;2023-06-14T04:22:19;100624.06;;;13.43;59.08
48882;BME280;57063;51.406;-2.402;2023-06-14T04:24:44;100633.22;;;13.61;58.68
48882;BME280;57063;51.406;-2.402;2023-06-14T04:27:09;100649.28;;;13.54;59.03
48882;BME280;57063;51.406;-2.402;2023-06-14T04:29:35;100637.88;;;13.56;59.42
48882;BME280;57063;51.406;-2.402;2023-06-14T04:32:01;100645.41;;;13.34;60.83
48882;BME280;57063;51.406;-2.402;2023-06-14T04:34:27;100648.75;;;13.21;62.17
48882;BME280;57063;51.406;-2.402;2023-06-14T04:36:57;100641.53;;;13.26;62.19
48882;BME280;57063;51.406;-2.402;2023-06-14T04:39:24;100651.91;;;13.26;62.69
48882;BME280;57063;51.406;-2.402;2023-06-14T04:41:51;100647.50;;;13.14;64.47
48882;BME280;57063;51.406;-2.402;2023-06-14T04:44:18;100653.75;;;13.24;65.24
48882;BME280;57063;51.406;-2.402;2023-06-14T04:46:47;100652.75;;;13.00;66.17
48882;BME280;57063;51.406;-2.402;2023-06-14T04:49:15;100657.53;;;13.06;66.90
48882;BME280;57063;51.406;-2.402;2023-06-14T04:51:42;100650.34;;;12.97;67.77
48882;BME280;57063;51.406;-2.402;2023-06-14T04:54:09;100648.94;;;13.05;68.00
48882;BME280;57063;51.406;-2.402;2023-06-14T04:56:40;100636.28;;;13.01;68.31
48882;BME280;57063;51.406;-2.402;2023-06-14T04:59:07;100641.66;;;12.98;69.01
48882;BME280;57063;51.406;-2.402;2023-06-14T05:01:33;100649.44;;;12.98;69.38
48882;BME280;57063;51.406;-2.402;2023-06-14T05:03:59;100646.41;;;12.91;69.74
48882;BME280;57063;51.406;-2.402;2023-06-14T05:06:25;100642.44;;;12.85;71.03
48882;BME280;57063;51.406;-2.402;2023-06-14T05:08:53;100644.78;;;13.03;70.58
48882;BME280;57063;51.406;-2.402;2023-06-14T05:11:18;100649.22;;;13.01;70.65
48882;BME280;57063;51.406;-2.402;2023-06-14T05:13:44;100655.09;;;12.90;71.38
48882;BME280;57063;51.406;-2.402;2023-06-14T05:16:10;100654.44;;;12.87;72.05
48882;BME280;57063;51.406;-2.402;2023-06-14T05:18:36;100651.06;;;12.99;71.69
48882;BME280;57063;51.406;-2.402;2023-06-14T05:21:02;100666.28;;;12.91;72.33
48882;BME280;57063;51.406;-2.402;2023-06-14T05:23:29;100652.50;;;12.90;72.38
48882;BME280;57063;51.406;-2.402;2023-06-14T05:25:55;100654.41;;;13.01;73.16
48882;BME280;57063;51.406;-2.402;2023-06-14T05:28:22;100660.31;;;13.03;72.64
48882;BME280;57063;51.406;-2.402;2023-06-14T05:30:47;100656.63;;;13.07;72.77
48882;BME280;57063;51.406;-2.402;2023-06-14T05:33:13;100659.59;;;13.01;73.02
48882;BME280;57063;51.406;-2.402;2023-06-14T05:35:38;100648.56;;;13.24;72.13
48882;BME280;57063;51.406;-2.402;2023-06-14T05:38:03;100653.09;;;13.08;72.74
48882;BME280;57063;51.406;-2.402;2023-06-14T05:40:29;100649.75;;;13.06;72.87
48882;BME280;57063;51.406;-2.402;2023-06-14T05:42:54;100649.75;;;13.06;72.97
48882;BME280;57063;51.406;-2.402;2023-06-14T05:45:20;100661.38;;;13.13;73.89
48882;BME280;57063;51.406;-2.402;2023-06-14T05:47:45;100655.19;;;13.16;73.11
48882;BME280;57063;51.406;-2.402;2023-06-14T05:50:10;100662.03;;;13.17;73.54
48882;BME280;57063;51.406;-2.402;2023-06-14T05:52:36;100663.47;;;13.21;73.57
48882;BME280;57063;51.406;-2.402;2023-06-14T05:55:03;100668.53;;;13.37;73.76
48882;BME280;57063;51.406;-2.402;2023-06-14T05:57:28;100661.28;;;13.42;73.23
48882;BME280;57063;51.406;-2.402;2023-06-14T05:59:54;100665.22;;;13.47;73.83
48882;BME280;57063;51.406;-2.402;2023-06-14T06:02:19;100669.00;;;13.56;72.90
48882;BME280;57063;51.406;-2.402;2023-06-14T06:04:45;100664.03;;;13.79;72.67
48882;BME280;57063;51.406;-2.402;2023-06-14T06:07:10;100667.03;;;13.98;71.77
48882;BME280;57063;51.406;-2.402;2023-06-14T06:09:36;100679.72;;;14.78;69.49
48882;BME280;57063;51.406;-2.402;2023-06-14T06:12:01;100683.69;;;18.67;55.88
48882;BME280;57063;51.406;-2.402;2023-06-14T06:14:26;100682.63;;;21.15;49.11
48882;BME280;57063;51.406;-2.402;2023-06-14T06:16:53;100684.44;;;22.45;45.05
48882;BME280;57063;51.406;-2.402;2023-06-14T06:19:18;100681.22;;;22.84;43.79
48882;BME280;57063;51.406;-2.402;2023-06-14T06:21:44;100689.66;;;23.86;42.01
48882;BME280;57063;51.406;-2.402;2023-06-14T06:24:09;100690.44;;;24.03;41.19
48882;BME280;57063;51.406;-2.402;2023-06-14T06:26:34;100696.38;;;25.45;38.80
48882;BME280;57063;51.406;-2.402;2023-06-14T06:29:00;100689.16;;;25.15;39.28
48882;BME280;57063;51.406;-2.402;2023-06-14T06:31:25;100700.38;;;24.71;40.07
48882;BME280;57063;51.406;-2.402;2023-06-14T06:33:53;100701.75;;;24.90;39.71
48882;BME280;57063;51.406;-2.402;2023-06-14T06:36:19;100700.53;;;25.77;38.55
48882;BME280;57063;51.406;-2.402;2023-06-14T06:38:45;100699.91;;;27.07;36.29
48882;BME280;57063;51.406;-2.402;2023-06-14T06:41:11;100694.09;;;26.60;36.63
48882;BME280;57063;51.406;-2.402;2023-06-14T06:43:36;100701.34;;;27.09;35.70
48882;BME280;57063;51.406;-2.402;2023-06-14T06:46:02;100696.25;;;26.20;37.43
48882;BME280;57063;51.406;-2.402;2023-06-14T06:48:27;100693.88;;;28.04;34.56
48882;BME280;57063;51.406;-2.402;2023-06-14T06:50:53;100692.75;;;27.57;35.50
48882;BME280;57063;51.406;-2.402;2023-06-14T06:53:19;100692.97;;;28.93;33.50
48882;BME280;57063;51.406;-2.402;2023-06-14T06:55:44;100693.16;;;28.78;33.87
48882;BME280;57063;51.406;-2.402;2023-06-14T06:58:10;100687.66;;;28.80;33.28
48882;BME280;57063;51.406;-2.402;2023-06-14T07:00:35;100696.44;;;28.26;34.54
48882;BME280;57063;51.406;-2.402;2023-06-14T07:03:01;100693.41;;;29.43;32.31
48882;BME280;57063;51.406;-2.402;2023-06-14T07:05:26;100700.72;;;29.01;32.75
48882;BME280;57063;51.406;-2.402;2023-06-14T07:07:52;100698.59;;;28.02;34.36
48882;BME280;57063;51.406;-2.402;2023-06-14T07:10:18;100697.72;;;28.36;34.05
48882;BME280;57063;51.406;-2.402;2023-06-14T07:12:44;100688.91;;;27.88;34.71
48882;BME280;57063;51.406;-2.402;2023-06-14T07:15:10;100693.38;;;29.03;33.03
48882;BME280;57063;51.406;-2.402;2023-06-14T07:17:35;100698.13;;;27.64;35.36
48882;BME280;57063;51.406;-2.402;2023-06-14T07:20:05;100697.56;;;26.97;35.97
48882;BME280;57063;51.406;-2.402;2023-06-14T07:22:37;100703.59;;;26.69;36.82
48882;BME280;57063;51.406;-2.402;2023-06-14T07:25:02;100693.13;;;27.26;36.17
48882;BME280;57063;51.406;-2.402;2023-06-14T07:27:28;100702.81;;;29.06;33.28
48882;BME280;57063;51.406;-2.402;2023-06-14T07:29:53;100708.22;;;28.10;34.25
48882;BME280;57063;51.406;-2.402;2023-06-14T07:32:18;100706.34;;;27.47;35.67
48882;BME280;57063;51.406;-2.402;2023-06-14T07:34:45;100707.50;;;28.36;33.63
48882;BME280;57063;51.406;-2.402;2023-06-14T07:37:10;100704.97;;;28.21;34.64
48882;BME280;57063;51.406;-2.402;2023-06-14T07:39:35;100703.78;;;27.32;35.25
48882;BME280;57063;51.406;-2.402;2023-06-14T07:42:01;100708.97;;;28.04;35.22
48882;BME280;57063;51.406;-2.402;2023-06-14T07:44:29;100703.69;;;28.04;34.36
48882;BME280;57063;51.406;-2.402;2023-06-14T07:46:56;100707.66;;;27.86;33.86
48882;BME280;57063;51.406;-2.402;2023-06-14T07:49:23;100705.16;;;28.61;33.98
48882;BME280;57063;51.406;-2.402;2023-06-14T07:51:50;100701.53;;;28.75;33.30
48882;BME280;57063;51.406;-2.402;2023-06-14T07:54:16;100708.84;;;28.12;34.75
48882;BME280;57063;51.406;-2.402;2023-06-14T07:56:41;100705.97;;;27.79;35.37
48882;BME280;57063;51.406;-2.402;2023-06-14T07:59:07;100709.00;;;28.45;33.82
48882;BME280;57063;51.406;-2.402;2023-06-14T08:01:33;100706.59;;;28.15;34.74
48882;BME280;57063;51.406;-2.402;2023-06-14T08:03:58;100702.09;;;28.09;34.63
48882;BME280;57063;51.406;-2.402;2023-06-14T08:06:24;100704.03;;;27.87;35.02
48882;BME280;57063;51.406;-2.402;2023-06-14T08:08:50;100712.78;;;28.36;33.98
48882;BME280;57063;51.406;-2.402;2023-06-14T08:11:15;100713.19;;;28.33;33.32
48882;BME280;57063;51.406;-2.402;2023-06-14T08:13:41;100708.41;;;28.50;33.69
48882;BME280;57063;51.406;-2.402;2023-06-14T08:16:06;100703.97;;;28.77;32.42
48882;BME280;57063;51.406;-2.402;2023-06-14T08:18:32;100709.91;;;28.31;33.25
48882;BME280;57063;51.406;-2.402;2023-06-14T08:20:57;100704.47;;;27.69;33.32
48882;BME280;57063;51.406;-2.402;2023-06-14T08:23:23;100704.66;;;28.37;32.84
48882;BME280;57063;51.406;-2.402;2023-06-14T08:25:48;100704.16;;;28.21;33.79
48882;BME280;57063;51.406;-2.402;2023-06-14T08:28:14;100718.00;;;28.57;32.68
48882;BME280;57063;51.406;-2.402;2023-06-14T08:30:40;100700.94;;;28.80;32.70
48882;BME280;57063;51.406;-2.402;2023-06-14T08:33:05;100700.66;;;28.62;33.06
48882;BME280;57063;51.406;-2.402;2023-06-14T08:35:35;100707.72;;;29.42;31.94
48882;BME280;57063;51.406;-2.402;2023-06-14T08:38:02;100702.38;;;28.28;32.83
48882;BME280;57063;51.406;-2.402;2023-06-14T08:40:29;100695.16;;;28.56;32.43
48882;BME280;57063;51.406;-2.402;2023-06-14T08:42:55;100703.19;;;28.96;30.53
48882;BME280;57063;51.406;-2.402;2023-06-14T08:45:21;100712.03;;;28.42;31.23
48882;BME280;57063;51.406;-2.402;2023-06-14T08:47:48;100709.03;;;28.58;30.20
48882;BME280;57063;51.406;-2.402;2023-06-14T08:50:20;100700.84;;;28.05;31.75
48882;BME280;57063;51.406;-2.402;2023-06-14T08:52:48;100697.25;;;28.94;31.74
48882;BME280;57063;51.406;-2.402;2023-06-14T08:55:18;100701.59;;;29.42;29.71
48882;BME280;57063;51.406;-2.402;2023-06-14T08:57:46;100706.09;;;29.41;27.58
48882;BME280;57063;51.406;-2.402;2023-06-14T09:00:13;100711.59;;;29.07;29.94
48882;BME280;57063;51.406;-2.402;2023-06-14T09:02:39;100704.84;;;29.31;29.78
48882;BME280;57063;51.406;-2.402;2023-06-14T09:05:10;100709.16;;;29.72;29.27
48882;BME280;57063;51.406;-2.402;2023-06-14T09:07:37;100711.56;;;30.00;29.08
48882;BME280;57063;51.406;-2.402;2023-06-14T09:10:11;100715.84;;;30.01;29.64
48882;BME280;57063;51.406;-2.402;2023-06-14T09:12:36;100713.84;;;29.70;29.11
48882;BME280;57063;51.406;-2.402;2023-06-14T09:15:03;100719.03;;;30.23;30.03
48882;BME280;57063;51.406;-2.402;2023-06-14T09:17:36;100724.06;;;29.93;29.35
48882;BME280;57063;51.406;-2.402;2023-06-14T09:20:03;100714.84;;;29.95;28.72
48882;BME280;57063;51.406;-2.402;2023-06-14T09:22:32;100714.81;;;30.92;28.75
48882;BME280;57063;51.406;-2.402;2023-06-14T09:24:59;100714.53;;;31.07;27.32
48882;BME280;57063;51.406;-2.402;2023-06-14T09:27:28;100711.41;;;30.85;29.62
48882;BME280;57063;51.406;-2.402;2023-06-14T09:29:54;100713.47;;;30.83;27.03
48882;BME280;57063;51.406;-2.402;2023-06-14T09:32:20;100712.81;;;31.63;26.11
48882;BME280;57063;51.406;-2.402;2023-06-14T09:34:46;100716.50;;;30.86;25.49
48882;BME280;57063;51.406;-2.402;2023-06-14T09:37:11;100717.84;;;31.02;27.21
48882;BME280;57063;51.406;-2.402;2023-06-14T09:39:50;100711.69;;;31.27;26.48
48882;BME280;57063;51.406;-2.402;2023-06-14T09:42:16;100707.31;;;31.39;26.14
48882;BME280;57063;51.406;-2.402;2023-06-14T09:44:48;100716.00;;;30.64;27.83
48882;BME280;57063;51.406;-2.402;2023-06-14T09:47:18;100706.06;;;31.35;26.96
48882;BME280;57063;51.406;-2.402;2023-06-14T09:49:43;100719.81;;;31.39;25.65
48882;BME280;57063;51.406;-2.402;2023-06-14T09:52:17;100715.09;;;30.84;27.83
48882;BME280;57063;51.406;-2.402;2023-06-14T09:54:43;100718.28;;;31.49;27.69
48882;BME280;57063;51.406;-2.402;2023-06-14T09:57:12;100715.22;;;31.89;26.75
48882;BME280;57063;51.406;-2.402;2023-06-14T09:59:41;100721.56;;;32.62;27.37
48882;BME280;57063;51.406;-2.402;2023-06-14T10:02:26;100718.84;;;32.50;26.71
48882;BME280;57063;51.406;-2.402;2023-06-14T10:05:07;100723.56;;;32.67;25.17
48882;BME280;57063;51.406;-2.402;2023-06-14T10:07:47;100719.22;;;31.80;26.17
48882;BME280;57063;51.406;-2.402;2023-06-14T10:10:14;100700.06;;;32.57;26.33
48882;BME280;57063;51.406;-2.402;2023-06-14T10:12:40;100713.56;;;32.44;25.46
48882;BME280;57063;51.406;-2.402;2023-06-14T10:15:07;100716.09;;;31.65;25.87
48882;BME280;57063;51.406;-2.402;2023-06-14T10:17:42;100723.59;;;32.30;26.66
48882;BME280;57063;51.406;-2.402;2023-06-14T10:20:27;100725.34;;;32.24;25.76
48882;BME280;57063;51.406;-2.402;2023-06-14T10:23:08;100713.44;;;31.83;26.64
48882;BME280;57063;51.406;-2.402;2023-06-14T10:25:35;100716.84;;;31.72;26.38
48882;BME280;57063;51.406;-2.402;2023-06-14T10:28:20;100720.72;;;32.13;27.08
48882;BME280;57063;51.406;-2.402;2023-06-14T10:31:09;100713.75;;;32.91;25.15
48882;BME280;57063;51.406;-2.402;2023-06-14T10:34:04;100718.28;;;32.60;24.39
48882;BME280;57063;51.406;-2.402;2023-06-14T10:36:30;100721.19;;;32.10;25.00
48882;BME280;57063;51.406;-2.402;2023-06-14T10:39:18;100713.03;;;32.05;26.40
48882;BME280;57063;51.406;-2.402;2023-06-14T10:41:55;100714.25;;;31.84;25.55
48882;BME280;57063;51.406;-2.402;2023-06-14T10:46:47;100696.09;;;32.59;25.39
48882;BME280;57063;51.406;-2.402;2023-06-14T10:49:16;100691.53;;;32.78;25.54
48882;BME280;57063;51.406;-2.402;2023-06-14T10:51:45;100693.50;;;32.83;25.56
48882;BME280;57063;51.406;-2.402;2023-06-14T10:54:15;100692.47;;;32.96;25.74
48882;BME280;57063;51.406;-2.402;2023-06-14T10:56:48;100690.56;;;33.15;24.67
48882;BME280;57063;51.406;-2.402;2023-06-14T10:59:14;100698.81;;;32.71;25.75
48882;BME280;57063;51.406;-2.402;2023-06-14T11:04:50;100701.13;;;33.33;24.29
48882;BME280;57063;51.406;-2.402;2023-06-14T11:12:14;100684.91;;;34.10;24.78
48882;BME280;57063;51.406;-2.402;2023-06-14T11:14:40;100689.94;;;33.95;23.74
48882;BME280;57063;51.406;-2.402;2023-06-14T11:17:06;100684.66;;;34.41;24.45
48882;BME280;57063;51.406;-2.402;2023-06-14T11:19:31;100679.28;;;34.24;22.68
48882;BME280;57063;51.406;-2.402;2023-06-14T11:21:57;100677.03;;;34.49;23.11
48882;BME280;57063;51.406;-2.402;2023-06-14T11:24:22;100675.16;;;34.62;22.25
48882;BME280;57063;51.406;-2.402;2023-06-14T11:26:48;100679.81;;;33.97;21.70
48882;BME280;57063;51.406;-2.402;2023-06-14T11:29:15;100676.94;;;35.24;20.55
48882;BME280;57063;51.406;-2.402;2023-06-14T11:31:44;100678.19;;;34.53;19.49
48882;BME280;57063;51.406;-2.402;2023-06-14T11:34:13;100668.34;;;34.14;19.35
48882;BME280;57063;51.406;-2.402;2023-06-14T11:36:39;100665.56;;;33.68;20.37
48882;BME280;57063;51.406;-2.402;2023-06-14T11:39:06;100665.44;;;33.63;19.98
48882;BME280;57063;51.406;-2.402;2023-06-14T11:41:37;100662.91;;;34.37;20.93
48882;BME280;57063;51.406;-2.402;2023-06-14T11:44:03;100654.84;;;34.08;20.89
48882;BME280;57063;51.406;-2.402;2023-06-14T11:46:28;100660.16;;;34.49;20.69
48882;BME280;57063;51.406;-2.402;2023-06-14T11:48:54;100655.25;;;34.74;18.78
48882;BME280;57063;51.406;-2.402;2023-06-14T11:51:22;100657.66;;;34.30;18.99
48882;BME280;57063;51.406;-2.402;2023-06-14T11:53:49;100656.97;;;34.81;18.29
48882;BME280;57063;51.406;-2.402;2023-06-14T11:56:14;100654.50;;;34.34;19.96
48882;BME280;57063;51.406;-2.402;2023-06-14T11:58:43;100650.00;;;34.51;19.19
48882;BME280;57063;51.406;-2.402;2023-06-14T12:01:08;100651.66;;;35.36;18.61
48882;BME280;57063;51.406;-2.402;2023-06-14T12:03:34;100647.75;;;35.27;17.00
48882;BME280;57063;51.406;-2.402;2023-06-14T12:06:29;100641.91;;;34.97;18.26
48882;BME280;57063;51.406;-2.402;2023-06-14T12:09:06;100644.44;;;35.81;18.70
48882;BME280;57063;51.406;-2.402;2023-06-14T12:11:37;100645.06;;;35.66;18.82
48882;BME280;57063;51.406;-2.402;2023-06-14T12:14:04;100636.38;;;34.69;19.32
48882;BME280;57063;51.406;-2.402;2023-06-14T12:16:31;100642.66;;;34.75;19.76
48882;BME280;57063;51.406;-2.402;2023-06-14T12:19:11;100654.38;;;34.12;19.71
48882;BME280;57063;51.406;-2.402;2023-06-14T12:21:38;100648.81;;;34.59;19.68
48882;BME280;57063;51.406;-2.402;2023-06-14T12:24:06;100649.94;;;34.46;20.08
48882;BME280;57063;51.406;-2.402;2023-06-14T12:26:32;100642.53;;;34.36;21.21
48882;BME280;57063;51.406;-2.402;2023-06-14T12:28:58;100639.88;;;33.84;20.87
48882;BME280;57063;51.406;-2.402;2023-06-14T12:31:24;100643.78;;;34.79;19.69
48882;BME280;57063;51.406;-2.402;2023-06-14T12:33:49;100641.78;;;33.72;19.47
48882;BME280;57063;51.406;-2.402;2023-06-14T12:36:15;100642.50;;;33.67;20.28
48882;BME280;57063;51.406;-2.402;2023-06-14T12:38:41;100636.53;;;34.80;20.28
48882;BME280;57063;51.406;-2.402;2023-06-14T12:41:07;100639.03;;;34.52;20.34
48882;BME280;57063;51.406;-2.402;2023-06-14T12:43:33;100637.69;;;34.67;22.09
48882;BME280;57063;51.406;-2.402;2023-06-14T12:45:59;100640.59;;;34.48;21.17
48882;BME280;57063;51.406;-2.402;2023-06-14T12:48:25;100632.09;;;34.85;21.31
48882;BME280;57063;51.406;-2.402;2023-06-14T12:50:52;100633.75;;;34.58;21.82